Time;durP1;ratioP1;P1;durP2;ratioP2;P2;SDS_P1;SDS_P2;PMS_P1;PMS_P2;Temp;Humidity;BMP_temperature;BMP_pressure;BME280_temperature;BME280_humidity;BME280_pressure;Samples;Min_cycle;Max_cycle;Signal;HPM_P1;HPM_P2
2022/06/30 00:00:36;;;;;;;12.88;11.05;;;;;;;;;;5032933;28;20144;-58
2022/06/30 00:03:04;;;;;;;14.63;11.50;;;;;;;;;;5012787;28;20147;-59
2022/06/30 00:05:29;;;;;;;14.20;11.40;;;;;;;;;;5031233;28;20029;-59
2022/06/30 00:07:55;;;;;;;13.68;11.32;;;;;;;;;;5033041;28;20037;-60
2022/06/30 00:10:21;;;;;;;12.60;11.27;;;;;;;;;;5030086;28;21064;-59
2022/06/30 00:12:47;;;;;;;12.07;10.77;;;;;;;;;;5022540;28;20083;-59
2022/06/30 00:15:12;;;;;;;13.80;10.95;;;;;;;;;;5013009;28;20108;-60
2022/06/30 00:17:38;;;;;;;13.10;11.10;;;;;;;;;;5015623;28;20033;-59
2022/06/30 00:20:04;;;;;;;12.88;11.40;;;;;;;;;;5011756;28;20037;-59
2022/06/30 00:22:29;;;;;;;13.00;11.52;;;;;;;;;;5027459;28;20041;-59
2022/06/30 00:24:55;;;;;;;12.80;11.25;;;;;;;;;;5032205;28;20030;-60
2022/06/30 00:27:20;;;;;;;15.02;11.88;;;;;;;;;;5030472;28;20033;-59
2022/06/30 00:29:46;;;;;;;16.90;12.10;;;;;;;;;;5032590;28;20037;-59
2022/06/30 00:32:11;;;;;;;14.25;11.40;;;;;;;;;;5027666;28;20116;-59
2022/06/30 00:34:36;;;;;;;12.98;11.40;;;;;;;;;;5019301;28;20033;-59
2022/06/30 00:37:02;;;;;;;13.20;11.52;;;;;;;;;;5010145;28;20033;-59
2022/06/30 00:39:29;;;;;;;14.80;12.60;;;;;;;;;;5031148;28;20042;-58
2022/06/30 00:41:55;;;;;;;18.70;13.25;;;;;;;;;;5017459;28;20034;-60
2022/06/30 00:44:21;;;;;;;16.20;12.65;;;;;;;;;;5030260;28;20037;-59
2022/06/30 00:46:46;;;;;;;15.00;13.00;;;;;;;;;;5031354;28;20045;-59
2022/06/30 00:49:12;;;;;;;16.38;13.63;;;;;;;;;;5013520;28;20026;-59
2022/06/30 00:51:37;;;;;;;16.25;13.40;;;;;;;;;;5020391;28;20034;-60
2022/06/30 00:54:04;;;;;;;14.63;12.93;;;;;;;;;;5031323;28;20103;-59
2022/06/30 00:56:31;;;;;;;16.15;13.10;;;;;;;;;;5018099;28;20045;-59
2022/06/30 00:59:01;;;;;;;17.98;14.18;;;;;;;;;;5012213;28;20091;-59
2022/06/30 01:01:29;;;;;;;20.98;15.18;;;;;;;;;;5018435;28;20041;-59
2022/06/30 01:03:55;;;;;;;18.33;14.95;;;;;;;;;;5022334;28;20033;-59
2022/06/30 01:06:22;;;;;;;20.83;15.75;;;;;;;;;;5030610;28;20106;-59
2022/06/30 01:08:49;;;;;;;19.60;16.27;;;;;;;;;;5031961;28;20104;-59
2022/06/30 01:14:01;;;;;;;19.98;15.93;;;;;;;;;;5016896;28;20060;-60
2022/06/30 01:16:26;;;;;;;19.30;15.68;;;;;;;;;;5012419;28;20045;-59
2022/06/30 01:18:52;;;;;;;18.95;16.85;;;;;;;;;;5018594;28;20025;-59
2022/06/30 01:21:17;;;;;;;21.92;17.25;;;;;;;;;;5025047;28;20886;-58
2022/06/30 01:23:43;;;;;;;19.55;16.42;;;;;;;;;;5032062;28;20030;-59
2022/06/30 01:26:08;;;;;;;21.25;17.38;;;;;;;;;;5027212;28;20075;-59
2022/06/30 01:28:34;;;;;;;25.23;18.48;;;;;;;;;;5020127;28;20025;-59
2022/06/30 01:30:59;;;;;;;21.15;17.20;;;;;;;;;;5027386;28;20052;-60
2022/06/30 01:33:25;;;;;;;25.17;17.60;;;;;;;;;;5030911;28;20083;-62
2022/06/30 01:35:51;;;;;;;22.48;17.30;;;;;;;;;;5028115;28;20435;-59
2022/06/30 01:38:17;;;;;;;20.23;15.98;;;;;;;;;;5028301;28;20552;-59
2022/06/30 01:40:43;;;;;;;23.50;17.33;;;;;;;;;;5028510;28;20060;-59
2022/06/30 01:43:11;;;;;;;21.45;17.15;;;;;;;;;;5023415;28;20462;-60
2022/06/30 01:45:37;;;;;;;21.92;17.70;;;;;;;;;;5025775;28;20483;-59
2022/06/30 01:48:04;;;;;;;24.30;17.10;;;;;;;;;;5029878;28;20028;-60
2022/06/30 01:50:30;;;;;;;21.60;17.38;;;;;;;;;;5024124;28;20038;-59
2022/06/30 01:52:57;;;;;;;24.63;17.48;;;;;;;;;;5026277;28;20084;-59
2022/06/30 01:55:23;;;;;;;20.95;17.77;;;;;;;;;;5025831;28;20056;-59
2022/06/30 01:57:49;;;;;;;25.52;17.88;;;;;;;;;;5030032;28;20026;-59
2022/06/30 02:00:18;;;;;;;23.92;18.13;;;;;;;;;;5028099;28;20080;-59
2022/06/30 02:02:44;;;;;;;21.23;17.75;;;;;;;;;;5029267;28;20068;-59
2022/06/30 02:05:10;;;;;;;23.25;18.50;;;;;;;;;;5027666;28;20034;-59
2022/06/30 02:07:36;;;;;;;22.70;18.35;;;;;;;;;;5031350;28;20040;-63
2022/06/30 02:10:06;;;;;;;22.90;18.42;;;;;;;;;;5023765;28;20057;-64
2022/06/30 02:12:45;;;;;;;20.58;17.70;;;;;;;;;;5028425;28;20034;-64
2022/06/30 02:15:33;;;;;;;22.65;18.58;;;;;;;;;;5015593;28;20034;-64
2022/06/30 02:18:00;;;;;;;23.92;18.65;;;;;;;;;;5015356;28;20430;-64
2022/06/30 02:20:26;;;;;;;23.65;18.27;;;;;;;;;;5022470;28;20045;-64
2022/06/30 02:22:55;;;;;;;23.00;18.80;;;;;;;;;;5030329;28;20025;-64
2022/06/30 02:25:20;;;;;;;21.67;18.48;;;;;;;;;;5032633;28;20034;-64
2022/06/30 02:27:46;;;;;;;24.55;18.92;;;;;;;;;;5032975;28;20083;-64
2022/06/30 02:30:12;;;;;;;22.45;18.85;;;;;;;;;;5031713;28;20037;-64
2022/06/30 02:32:38;;;;;;;22.88;18.75;;;;;;;;;;5030718;28;20048;-64
2022/06/30 02:35:04;;;;;;;22.17;18.02;;;;;;;;;;5030324;28;20026;-64
2022/06/30 02:37:30;;;;;;;23.92;18.08;;;;;;;;;;5025494;28;20025;-64
2022/06/30 02:39:55;;;;;;;25.30;18.55;;;;;;;;;;5031738;28;20026;-64
2022/06/30 02:42:22;;;;;;;25.98;18.85;;;;;;;;;;5025884;28;20048;-65
2022/06/30 02:44:47;;;;;;;22.52;18.42;;;;;;;;;;5033661;28;20032;-65
2022/06/30 02:47:12;;;;;;;38.42;18.75;;;;;;;;;;5015766;28;20030;-65
2022/06/30 02:49:39;;;;;;;23.17;18.27;;;;;;;;;;5016982;28;20485;-65
2022/06/30 02:52:05;;;;;;;25.25;18.38;;;;;;;;;;5029858;28;20518;-64
2022/06/30 02:54:31;;;;;;;24.67;18.98;;;;;;;;;;5033499;28;20045;-64
2022/06/30 02:56:56;;;;;;;21.80;18.17;;;;;;;;;;5034393;28;20056;-64
2022/06/30 02:59:22;;;;;;;23.45;19.00;;;;;;;;;;5013940;28;20026;-65
2022/06/30 03:01:47;;;;;;;22.52;18.75;;;;;;;;;;5031517;28;20061;-64
2022/06/30 03:04:13;;;;;;;25.30;19.73;;;;;;;;;;5030342;28;20038;-64
2022/06/30 03:07:00;;;;;;;22.80;19.00;;;;;;;;;;5031225;28;20033;-64
2022/06/30 03:09:25;;;;;;;28.02;20.00;;;;;;;;;;5012547;28;20580;-64
2022/06/30 03:11:51;;;;;;;24.83;18.88;;;;;;;;;;5015304;28;20136;-64
2022/06/30 03:14:16;;;;;;;23.40;18.65;;;;;;;;;;5031211;28;20033;-64
2022/06/30 03:16:42;;;;;;;24.25;18.40;;;;;;;;;;5003081;28;20455;-64
2022/06/30 03:19:07;;;;;;;24.33;19.60;;;;;;;;;;5014962;28;20041;-64
2022/06/30 03:21:32;;;;;;;25.98;19.50;;;;;;;;;;5027016;28;20056;-64
2022/06/30 03:23:58;;;;;;;25.13;19.35;;;;;;;;;;5032934;28;20079;-65
2022/06/30 03:26:23;;;;;;;24.88;19.38;;;;;;;;;;5033039;28;20033;-64
2022/06/30 03:28:49;;;;;;;27.13;19.70;;;;;;;;;;5033823;28;20029;-64
2022/06/30 03:31:14;;;;;;;26.25;20.05;;;;;;;;;;5014699;28;20037;-64
2022/06/30 03:33:40;;;;;;;25.02;19.75;;;;;;;;;;5033678;28;20394;-65
2022/06/30 03:36:05;;;;;;;26.88;20.50;;;;;;;;;;5032946;28;20113;-65
2022/06/30 03:38:31;;;;;;;25.75;19.75;;;;;;;;;;5025340;28;20057;-65
2022/06/30 03:40:56;;;;;;;23.35;18.55;;;;;;;;;;5030723;28;20398;-65
2022/06/30 03:43:22;;;;;;;24.92;19.27;;;;;;;;;;5031213;28;20068;-64
2022/06/30 03:45:47;;;;;;;23.05;19.00;;;;;;;;;;5020496;28;20053;-64
2022/06/30 03:48:13;;;;;;;23.58;19.10;;;;;;;;;;5013285;28;20041;-64
2022/06/30 03:50:38;;;;;;;24.05;19.65;;;;;;;;;;5013520;28;20037;-65
2022/06/30 03:53:04;;;;;;;26.23;19.15;;;;;;;;;;5025681;28;20513;-64
2022/06/30 03:55:30;;;;;;;25.13;18.50;;;;;;;;;;5032481;28;20113;-64
2022/06/30 03:57:56;;;;;;;22.90;18.90;;;;;;;;;;5029604;28;20083;-64
2022/06/30 04:00:23;;;;;;;23.05;18.17;;;;;;;;;;5029790;28;20057;-64
2022/06/30 04:02:48;;;;;;;25.08;18.67;;;;;;;;;;5024834;28;20125;-65
2022/06/30 04:05:14;;;;;;;23.13;17.98;;;;;;;;;;5032443;28;20492;-64
2022/06/30 04:07:44;;;;;;;23.77;18.25;;;;;;;;;;5018019;28;20044;-64
2022/06/30 04:10:12;;;;;;;25.38;19.45;;;;;;;;;;5012651;28;20033;-64
2022/06/30 04:12:38;;;;;;;24.70;18.23;;;;;;;;;;5012575;28;20053;-65
2022/06/30 04:15:04;;;;;;;22.35;17.58;;;;;;;;;;5029915;28;20040;-64
2022/06/30 04:17:33;;;;;;;23.13;18.08;;;;;;;;;;5015876;28;20101;-64
2022/06/30 04:20:02;;;;;;;23.48;17.80;;;;;;;;;;5018519;28;20030;-64
2022/06/30 04:22:27;;;;;;;30.67;18.27;;;;;;;;;;5023701;28;20047;-65
2022/06/30 04:24:53;;;;;;;26.35;18.80;;;;;;;;;;5032753;28;20022;-64
2022/06/30 04:27:18;;;;;;;25.98;19.20;;;;;;;;;;5030210;28;20029;-64
2022/06/30 04:29:44;;;;;;;24.75;18.15;;;;;;;;;;5013171;28;20155;-65
2022/06/30 04:34:53;;;;;;;23.40;17.95;;;;;;;;;;5032729;28;20091;-65
2022/06/30 04:37:18;;;;;;;22.42;18.05;;;;;;;;;;5029574;28;20342;-64
2022/06/30 04:39:44;;;;;;;26.40;17.95;;;;;;;;;;5023607;28;20033;-64
2022/06/30 04:42:09;;;;;;;22.17;17.67;;;;;;;;;;4998169;28;20022;-65
2022/06/30 04:44:35;;;;;;;22.08;18.05;;;;;;;;;;5025661;28;20030;-65
2022/06/30 04:47:01;;;;;;;22.48;17.85;;;;;;;;;;5013142;28;20041;-65
2022/06/30 04:49:26;;;;;;;20.83;17.98;;;;;;;;;;5030168;28;20033;-65
2022/06/30 04:51:51;;;;;;;20.98;17.00;;;;;;;;;;5027372;28;20378;-64
2022/06/30 04:54:17;;;;;;;21.10;17.98;;;;;;;;;;5030835;28;20046;-64
2022/06/30 04:56:42;;;;;;;21.98;17.73;;;;;;;;;;5029845;28;20033;-65
2022/06/30 04:59:08;;;;;;;21.58;17.23;;;;;;;;;;5023986;28;20041;-65
2022/06/30 05:01:33;;;;;;;22.77;17.73;;;;;;;;;;5013790;28;20301;-65
2022/06/30 05:03:58;;;;;;;23.73;17.08;;;;;;;;;;5025600;28;20055;-65
2022/06/30 05:06:24;;;;;;;21.65;17.05;;;;;;;;;;5029198;28;20421;-64
2022/06/30 05:08:49;;;;;;;22.20;17.35;;;;;;;;;;5012478;28;20037;-65
2022/06/30 05:11:15;;;;;;;24.13;18.20;;;;;;;;;;5012015;28;20026;-66
2022/06/30 05:13:40;;;;;;;21.30;16.92;;;;;;;;;;5026994;28;20565;-65
2022/06/30 05:16:05;;;;;;;21.65;17.45;;;;;;;;;;5032072;28;20117;-65
2022/06/30 05:18:31;;;;;;;21.95;17.27;;;;;;;;;;5030303;28;20061;-65
2022/06/30 05:20:57;;;;;;;23.55;18.05;;;;;;;;;;5031563;28;20528;-65
2022/06/30 05:23:22;;;;;;;20.48;17.13;;;;;;;;;;5016505;28;20037;-65
2022/06/30 05:28:32;;;;;;;23.40;16.90;;;;;;;;;;5029629;28;20067;-59
2022/06/30 05:30:57;;;;;;;17.90;15.98;;;;;;;;;;5028553;28;20033;-59
2022/06/30 05:33:23;;;;;;;19.88;15.68;;;;;;;;;;5022665;28;20076;-60
2022/06/30 05:35:51;;;;;;;22.05;15.68;;;;;;;;;;5031418;28;20033;-59
2022/06/30 05:38:17;;;;;;;20.95;16.45;;;;;;;;;;5029684;28;20043;-60
2022/06/30 05:40:45;;;;;;;18.42;15.20;;;;;;;;;;5012314;28;20107;-59
2022/06/30 05:43:13;;;;;;;21.30;15.93;;;;;;;;;;5028990;28;20032;-59
2022/06/30 05:45:40;;;;;;;22.60;16.05;;;;;;;;;;5032842;28;20065;-59
2022/06/30 05:48:05;;;;;;;21.80;16.95;;;;;;;;;;5035877;28;20029;-60
2022/06/30 05:50:31;;;;;;;21.75;16.45;;;;;;;;;;5031257;28;20044;-60
2022/06/30 05:52:57;;;;;;;26.88;17.42;;;;;;;;;;5033910;28;20041;-57
2022/06/30 05:55:22;;;;;;;20.27;16.90;;;;;;;;;;5032421;28;20087;-59
2022/06/30 05:57:56;;;;;;;22.73;16.17;;;;;;;;;;5014563;28;20501;-58
2022/06/30 06:00:24;;;;;;;20.83;15.95;;;;;;;;;;5033379;28;20037;-58
2022/06/30 06:02:50;;;;;;;20.25;16.73;;;;;;;;;;5032277;28;20029;-58
2022/06/30 06:05:16;;;;;;;19.52;15.57;;;;;;;;;;5023061;28;20497;-61
2022/06/30 06:07:42;;;;;;;16.77;14.93;;;;;;;;;;5031401;28;20077;-59
2022/06/30 06:10:09;;;;;;;18.60;14.90;;;;;;;;;;5030691;28;20029;-61
2022/06/30 06:12:34;;;;;;;18.17;14.90;;;;;;;;;;5014396;28;20029;-59
2022/06/30 06:15:00;;;;;;;20.10;14.48;;;;;;;;;;5028744;28;20040;-59
2022/06/30 06:17:26;;;;;;;19.15;14.60;;;;;;;;;;5033319;28;20370;-60
2022/06/30 06:19:51;;;;;;;18.20;14.23;;;;;;;;;;5021016;28;20392;-59
2022/06/30 06:22:16;;;;;;;16.48;13.98;;;;;;;;;;4997083;28;20026;-60
2022/06/30 06:24:42;;;;;;;16.48;14.23;;;;;;;;;;5015112;28;20450;-59
2022/06/30 06:27:07;;;;;;;17.65;14.35;;;;;;;;;;5027537;28;20091;-59
2022/06/30 06:29:33;;;;;;;19.08;14.15;;;;;;;;;;5033328;28;20037;-59
2022/06/30 06:31:58;;;;;;;17.60;13.52;;;;;;;;;;5028971;28;20104;-59
2022/06/30 06:34:23;;;;;;;16.42;13.90;;;;;;;;;;5014336;28;20030;-61
2022/06/30 06:36:49;;;;;;;16.30;13.75;;;;;;;;;;5030125;28;20407;-59
2022/06/30 06:39:14;;;;;;;17.38;13.70;;;;;;;;;;5019247;28;20469;-60
2022/06/30 06:41:39;;;;;;;17.02;13.27;;;;;;;;;;5029298;28;20048;-59
2022/06/30 06:44:05;;;;;;;17.33;12.32;;;;;;;;;;5025543;28;20052;-60
2022/06/30 06:46:31;;;;;;;15.45;12.43;;;;;;;;;;5033550;28;20029;-60
2022/06/30 06:49:02;;;;;;;17.00;12.43;;;;;;;;;;5031266;28;20029;-59
2022/06/30 06:51:28;;;;;;;14.30;12.25;;;;;;;;;;5027709;28;20029;-60
2022/06/30 06:53:54;;;;;;;16.35;12.15;;;;;;;;;;5033004;28;20057;-57
2022/06/30 06:56:20;;;;;;;13.27;11.88;;;;;;;;;;5025057;28;20034;-60
2022/06/30 06:58:46;;;;;;;14.32;11.38;;;;;;;;;;5014506;28;20762;-59
2022/06/30 07:01:11;;;;;;;18.80;11.50;;;;;;;;;;5018780;28;20037;-59
2022/06/30 07:03:37;;;;;;;14.18;11.73;;;;;;;;;;5012148;28;20609;-57
2022/06/30 07:06:03;;;;;;;14.52;11.95;;;;;;;;;;5022243;28;20385;-59
2022/06/30 07:08:28;;;;;;;20.48;11.55;;;;;;;;;;5015063;28;20441;-59
2022/06/30 07:10:56;;;;;;;14.32;10.43;;;;;;;;;;5028560;28;20454;-59
2022/06/30 07:13:25;;;;;;;16.40;10.30;;;;;;;;;;5028342;28;20038;-60
2022/06/30 07:15:51;;;;;;;13.50;10.20;;;;;;;;;;5028226;28;20043;-57
2022/06/30 07:18:16;;;;;;;15.98;10.60;;;;;;;;;;5032389;28;20071;-56
2022/06/30 07:20:41;;;;;;;16.20;10.18;;;;;;;;;;5030483;28;20397;-57
2022/06/30 07:23:07;;;;;;;15.55;9.73;;;;;;;;;;5028342;28;20048;-55
2022/06/30 07:25:32;;;;;;;13.88;9.73;;;;;;;;;;5019822;28;20343;-58
2022/06/30 07:27:58;;;;;;;10.95;8.70;;;;;;;;;;5033616;28;20512;-60
2022/06/30 07:30:24;;;;;;;11.75;8.63;;;;;;;;;;5027604;28;20025;-60
2022/06/30 07:32:50;;;;;;;15.73;9.05;;;;;;;;;;5013998;28;20042;-61
2022/06/30 07:35:16;;;;;;;11.60;8.25;;;;;;;;;;5014913;28;20040;-58
2022/06/30 07:37:41;;;;;;;12.80;8.40;;;;;;;;;;5028979;28;20060;-59
2022/06/30 07:40:08;;;;;;;14.02;8.68;;;;;;;;;;5033034;28;20040;-59
2022/06/30 07:42:33;;;;;;;12.23;7.63;;;;;;;;;;5029470;28;20431;-57
2022/06/30 07:44:59;;;;;;;11.65;7.43;;;;;;;;;;5014985;28;20040;-59
2022/06/30 07:47:25;;;;;;;11.40;7.43;;;;;;;;;;5011141;28;20041;-58
2022/06/30 07:49:50;;;;;;;8.85;7.05;;;;;;;;;;5016853;28;20478;-59
2022/06/30 07:52:15;;;;;;;7.95;6.88;;;;;;;;;;5032507;28;20060;-58
2022/06/30 07:54:41;;;;;;;9.30;7.35;;;;;;;;;;5032034;28;20073;-59
2022/06/30 07:57:06;;;;;;;12.60;7.60;;;;;;;;;;5031810;28;20064;-58
2022/06/30 07:59:32;;;;;;;10.65;7.15;;;;;;;;;;5018340;28;20067;-58
2022/06/30 08:01:59;;;;;;;11.02;7.05;;;;;;;;;;5025331;28;20033;-58
2022/06/30 08:04:25;;;;;;;12.77;7.63;;;;;;;;;;5007282;28;20029;-59
2022/06/30 08:06:50;;;;;;;9.45;8.07;;;;;;;;;;5032287;28;20444;-58
2022/06/30 08:09:15;;;;;;;12.75;8.07;;;;;;;;;;5030567;28;20029;-59
2022/06/30 08:11:41;;;;;;;11.93;8.60;;;;;;;;;;5032095;28;20041;-59
2022/06/30 08:14:06;;;;;;;11.30;8.35;;;;;;;;;;5031560;28;20036;-59
2022/06/30 08:16:32;;;;;;;9.73;8.27;;;;;;;;;;5032127;28;20091;-59
2022/06/30 08:18:57;;;;;;;12.95;9.30;;;;;;;;;;5031662;28;20475;-58
2022/06/30 08:21:22;;;;;;;12.55;8.75;;;;;;;;;;5031847;28;20037;-59
2022/06/30 08:23:48;;;;;;;9.23;8.23;;;;;;;;;;5026471;28;20037;-58
2022/06/30 08:26:13;;;;;;;11.60;7.22;;;;;;;;;;5013164;28;20072;-59
2022/06/30 08:28:39;;;;;;;10.23;5.43;;;;;;;;;;5015700;28;20149;-59
2022/06/30 08:31:05;;;;;;;8.48;5.75;;;;;;;;;;5032555;28;20447;-60
2022/06/30 08:33:30;;;;;;;9.25;5.65;;;;;;;;;;5010620;28;20057;-58
2022/06/30 08:35:56;;;;;;;7.82;5.18;;;;;;;;;;5032885;28;20094;-59
2022/06/30 08:38:21;;;;;;;7.45;5.05;;;;;;;;;;5018837;28;20138;-61
2022/06/30 08:43:33;;;;;;;5.95;4.50;;;;;;;;;;5025968;28;20402;-59
2022/06/30 08:46:00;;;;;;;5.75;4.50;;;;;;;;;;5029197;28;20393;-58
2022/06/30 08:48:26;;;;;;;9.75;5.00;;;;;;;;;;5026417;28;20083;-60
2022/06/30 08:50:58;;;;;;;11.05;5.20;;;;;;;;;;5031876;28;20037;-60
2022/06/30 08:53:27;;;;;;;8.18;4.30;;;;;;;;;;5030973;28;20045;-59
2022/06/30 08:55:53;;;;;;;7.57;4.60;;;;;;;;;;5032014;28;20026;-60
2022/06/30 08:58:20;;;;;;;8.00;3.65;;;;;;;;;;5027727;28;20045;-59
2022/06/30 09:00:46;;;;;;;6.32;3.22;;;;;;;;;;5024965;28;20109;-58
2022/06/30 09:03:11;;;;;;;5.88;3.30;;;;;;;;;;5026227;28;20488;-58
2022/06/30 09:05:37;;;;;;;7.70;3.53;;;;;;;;;;5030832;28;20045;-61
2022/06/30 09:08:03;;;;;;;9.55;3.30;;;;;;;;;;5031363;28;20116;-59
2022/06/30 09:10:29;;;;;;;5.43;3.10;;;;;;;;;;5030988;28;20105;-60
2022/06/30 09:13:02;;;;;;;6.68;3.63;;;;;;;;;;5030680;28;20489;-59
2022/06/30 09:15:29;;;;;;;5.05;2.88;;;;;;;;;;5022098;28;20038;-60
2022/06/30 09:17:55;;;;;;;6.95;3.10;;;;;;;;;;5020830;28;20035;-60
2022/06/30 09:20:33;;;;;;;5.05;2.92;;;;;;;;;;5027173;28;21535;-62
2022/06/30 09:22:59;;;;;;;5.82;3.10;;;;;;;;;;5027842;28;20120;-59
2022/06/30 09:25:30;;;;;;;5.95;3.15;;;;;;;;;;5028968;28;20042;-60
2022/06/30 09:27:56;;;;;;;6.22;3.25;;;;;;;;;;5014218;28;20037;-61
2022/06/30 09:30:24;;;;;;;6.30;3.40;;;;;;;;;;5013404;28;20112;-61
2022/06/30 09:32:57;;;;;;;7.13;3.70;;;;;;;;;;5029005;28;20043;-60
2022/06/30 09:35:28;;;;;;;6.43;3.72;;;;;;;;;;5029766;28;20037;-61
2022/06/30 09:38:12;;;;;;;7.68;3.05;;;;;;;;;;5029474;28;20041;-57
2022/06/30 09:41:00;;;;;;;6.03;3.20;;;;;;;;;;5030759;28;20041;-57
2022/06/30 09:43:36;;;;;;;6.80;3.10;;;;;;;;;;5029770;28;20239;-59
2022/06/30 09:46:02;;;;;;;7.25;3.42;;;;;;;;;;5031292;28;20052;-60
2022/06/30 09:48:31;;;;;;;9.18;3.72;;;;;;;;;;5023024;28;20042;-60
2022/06/30 09:50:58;;;;;;;8.45;3.70;;;;;;;;;;4997636;28;20116;-60
2022/06/30 09:53:24;;;;;;;6.72;3.70;;;;;;;;;;5029496;28;20049;-60
2022/06/30 09:55:49;;;;;;;8.52;3.63;;;;;;;;;;5029781;28;20036;-60
2022/06/30 09:58:30;;;;;;;6.68;3.50;;;;;;;;;;5030951;28;20385;-60
2022/06/30 10:00:55;;;;;;;6.82;3.80;;;;;;;;;;5030291;28;20529;-57
2022/06/30 10:03:21;;;;;;;7.90;3.95;;;;;;;;;;5029340;28;20124;-61
2022/06/30 10:05:49;;;;;;;8.02;3.60;;;;;;;;;;5030853;28;20026;-60
2022/06/30 10:08:16;;;;;;;6.78;3.60;;;;;;;;;;5031330;28;20025;-59
2022/06/30 10:10:43;;;;;;;9.63;3.92;;;;;;;;;;5029483;28;20786;-61
2022/06/30 10:13:18;;;;;;;7.65;3.50;;;;;;;;;;5030550;28;20038;-60
2022/06/30 10:15:53;;;;;;;6.63;3.22;;;;;;;;;;5030050;28;20025;-59
2022/06/30 10:18:21;;;;;;;6.30;3.47;;;;;;;;;;5024703;28;20041;-66
2022/06/30 10:20:48;;;;;;;7.22;3.78;;;;;;;;;;5011755;28;20044;-59
2022/06/30 10:23:19;;;;;;;7.82;3.42;;;;;;;;;;5011581;28;20037;-60
2022/06/30 10:25:49;;;;;;;7.28;3.08;;;;;;;;;;5029356;28;20382;-60
2022/06/30 10:28:19;;;;;;;7.05;3.03;;;;;;;;;;5030273;28;20034;-62
2022/06/30 10:30:47;;;;;;;;;;;;;;;;;;5028900;28;20065;-61
2022/06/30 10:33:38;;;;;;;6.72;3.28;;;;;;;;;;5019277;28;19959;-59
2022/06/30 10:36:08;;;;;;;;;;;;;;;;;;5019736;28;20387;-58
2022/06/30 10:39:02;;;;;;;5.47;3.05;;;;;;;;;;5033691;28;19967;-58
2022/06/30 10:41:28;;;;;;;5.47;3.00;;;;;;;;;;5016603;28;20429;-59
2022/06/30 10:44:05;;;;;;;6.78;2.97;;;;;;;;;;5033627;28;20041;-56
2022/06/30 10:46:49;;;;;;;8.98;3.25;;;;;;;;;;5032673;28;20033;-59
2022/06/30 10:49:15;;;;;;;7.35;2.97;;;;;;;;;;5033427;28;20481;-58
2022/06/30 10:51:41;;;;;;;5.68;3.15;;;;;;;;;;5033702;28;20033;-59
2022/06/30 10:54:08;;;;;;;8.43;3.00;;;;;;;;;;5021180;28;20037;-59
2022/06/30 10:56:49;;;;;;;6.40;3.00;;;;;;;;;;5020802;28;20375;-59
2022/06/30 10:59:16;;;;;;;5.60;2.90;;;;;;;;;;5018583;28;20135;-60
2022/06/30 11:02:13;;;;;;;7.45;2.85;;;;;;;;;;5013095;28;20237;-60
2022/06/30 11:04:43;;;;;;;6.07;3.08;;;;;;;;;;5030375;28;20120;-60
2022/06/30 11:07:13;;;;;;;8.98;3.17;;;;;;;;;;5029625;28;20056;-60
2022/06/30 11:09:44;;;;;;;5.95;2.92;;;;;;;;;;5032079;28;20048;-60
2022/06/30 11:12:37;;;;;;;7.13;3.10;;;;;;;;;;5030452;28;20525;-59
2022/06/30 11:15:03;;;;;;;6.95;2.90;;;;;;;;;;4983884;28;20049;-60
2022/06/30 11:17:30;;;;;;;5.78;2.90;;;;;;;;;;5021820;28;20036;-60
2022/06/30 11:20:08;;;;;;;5.25;2.50;;;;;;;;;;5034044;28;20351;-60
2022/06/30 11:22:34;;;;;;;3.83;2.70;;;;;;;;;;5018816;28;20565;-60
2022/06/30 11:27:58;;;;;;;4.53;2.65;;;;;;;;;;5027202;28;20388;-61
2022/06/30 11:30:29;;;;;;;7.75;2.60;;;;;;;;;;5013275;28;20499;-62
2022/06/30 11:32:55;;;;;;;5.88;2.53;;;;;;;;;;5029221;28;20127;-60
2022/06/30 11:35:28;;;;;;;9.60;2.80;;;;;;;;;;5033011;28;20057;-62
2022/06/30 11:37:54;;;;;;;4.43;2.90;;;;;;;;;;5032133;28;20446;-61
2022/06/30 11:40:19;;;;;;;6.18;2.70;;;;;;;;;;5032808;28;20033;-63
2022/06/30 11:42:44;;;;;;;8.98;2.75;;;;;;;;;;5019998;28;20037;-61
2022/06/30 11:45:21;;;;;;;5.13;2.65;;;;;;;;;;5013520;28;20030;-61
2022/06/30 11:48:03;;;;;;;6.40;2.42;;;;;;;;;;5029246;28;20044;-61
2022/06/30 11:50:29;;;;;;;4.97;2.47;;;;;;;;;;5011409;28;20123;-61
2022/06/30 11:52:57;;;;;;;5.07;2.63;;;;;;;;;;5029796;28;20029;-60
2022/06/30 11:55:27;;;;;;;8.73;2.90;;;;;;;;;;5030430;28;20040;-61
2022/06/30 11:57:54;;;;;;;6.05;2.53;;;;;;;;;;5015373;28;20044;-60
2022/06/30 12:00:27;;;;;;;4.28;2.30;;;;;;;;;;5029936;28;20116;-62
2022/06/30 12:02:53;;;;;;;5.50;2.67;;;;;;;;;;5032888;28;20061;-59
2022/06/30 12:05:21;;;;;;;5.00;2.63;;;;;;;;;;5018935;28;20046;-62
2022/06/30 12:07:47;;;;;;;5.57;2.70;;;;;;;;;;5014664;28;20076;-59
2022/06/30 12:10:16;;;;;;;9.90;2.70;;;;;;;;;;5016087;28;20042;-59
2022/06/30 12:12:42;;;;;;;6.18;2.70;;;;;;;;;;5012923;28;20137;-60
2022/06/30 12:15:18;;;;;;;7.47;2.88;;;;;;;;;;5029868;28;20042;-59
2022/06/30 12:17:52;;;;;;;6.93;2.60;;;;;;;;;;5031424;28;20033;-60
2022/06/30 12:20:18;;;;;;;8.73;2.80;;;;;;;;;;5027317;28;20371;-60
2022/06/30 12:22:47;;;;;;;8.30;2.60;;;;;;;;;;5029313;28;20037;-60
2022/06/30 12:25:15;;;;;;;5.28;2.42;;;;;;;;;;5032702;28;20044;-60
2022/06/30 12:27:43;;;;;;;6.25;2.42;;;;;;;;;;5014549;28;20045;-59
2022/06/30 12:30:15;;;;;;;4.47;2.60;;;;;;;;;;5020775;28;20476;-60
2022/06/30 12:32:41;;;;;;;10.82;2.60;;;;;;;;;;5024307;28;20084;-59
2022/06/30 12:35:10;;;;;;;6.15;2.30;;;;;;;;;;5032349;28;20462;-60
2022/06/30 12:37:38;;;;;;;5.35;2.80;;;;;;;;;;5031710;28;20029;-61
2022/06/30 12:40:09;;;;;;;6.55;2.58;;;;;;;;;;5031618;28;20030;-60
2022/06/30 12:42:41;;;;;;;5.45;2.40;;;;;;;;;;5031351;28;20025;-61
2022/06/30 12:45:26;;;;;;;4.22;2.50;;;;;;;;;;5026424;28;20153;-62
2022/06/30 12:47:52;;;;;;;9.50;2.55;;;;;;;;;;5014479;28;20056;-61
2022/06/30 12:50:21;;;;;;;6.07;2.50;;;;;;;;;;5015524;28;20041;-62
2022/06/30 12:52:47;;;;;;;6.28;2.50;;;;;;;;;;5031807;28;20029;-62
2022/06/30 12:55:12;;;;;;;6.00;2.30;;;;;;;;;;5031030;28;20029;-59
2022/06/30 12:57:37;;;;;;;5.68;2.50;;;;;;;;;;5031404;28;20037;-60
2022/06/30 13:00:03;;;;;;;5.65;2.40;;;;;;;;;;5028277;28;20104;-61
2022/06/30 13:02:42;;;;;;;6.15;2.40;;;;;;;;;;5024872;28;20040;-61
2022/06/30 13:05:12;;;;;;;7.60;2.50;;;;;;;;;;5025880;28;20037;-60
2022/06/30 13:07:38;;;;;;;5.72;2.55;;;;;;;;;;5030259;28;20045;-60
2022/06/30 13:10:04;;;;;;;5.65;2.50;;;;;;;;;;5032003;28;20040;-60
2022/06/30 13:12:30;;;;;;;5.90;2.45;;;;;;;;;;5028949;28;20043;-61
2022/06/30 13:14:56;;;;;;;5.50;2.50;;;;;;;;;;5013491;28;20116;-60
2022/06/30 13:17:21;;;;;;;10.15;2.83;;;;;;;;;;5009981;28;20492;-61
2022/06/30 13:19:47;;;;;;;6.03;2.50;;;;;;;;;;5028640;28;20040;-61
2022/06/30 13:22:12;;;;;;;5.50;2.55;;;;;;;;;;5031582;28;20045;-60
2022/06/30 13:24:38;;;;;;;4.90;2.40;;;;;;;;;;5026784;28;20635;-59
2022/06/30 13:27:05;;;;;;;6.68;2.45;;;;;;;;;;5015268;28;20104;-61
2022/06/30 13:29:35;;;;;;;3.65;2.20;;;;;;;;;;5016602;28;20029;-62
2022/06/30 13:32:02;;;;;;;7.93;2.50;;;;;;;;;;5030028;28;20378;-60
2022/06/30 13:34:28;;;;;;;4.65;2.35;;;;;;;;;;5030678;28;20047;-60
2022/06/30 13:36:53;;;;;;;6.00;2.30;;;;;;;;;;5016213;28;20430;-60
2022/06/30 13:39:19;;;;;;;5.93;2.10;;;;;;;;;;5025922;28;20037;-63
2022/06/30 13:41:45;;;;;;;6.13;2.25;;;;;;;;;;5027544;28;20030;-61
2022/06/30 13:44:11;;;;;;;6.72;2.40;;;;;;;;;;5030987;28;20034;-63
2022/06/30 13:46:38;;;;;;;3.58;2.17;;;;;;;;;;5028193;28;20033;-61
2022/06/30 13:49:05;;;;;;;4.57;2.20;;;;;;;;;;5031410;28;20030;-60
2022/06/30 13:51:32;;;;;;;5.53;2.38;;;;;;;;;;5028036;28;20133;-61
2022/06/30 13:53:58;;;;;;;6.88;2.50;;;;;;;;;;5031271;28;20065;-60
2022/06/30 13:56:25;;;;;;;4.47;2.20;;;;;;;;;;5026954;28;20037;-62
2022/06/30 13:58:52;;;;;;;7.10;2.28;;;;;;;;;;5028714;28;20033;-60
2022/06/30 14:01:18;;;;;;;5.50;2.30;;;;;;;;;;5031302;28;20450;-62
2022/06/30 14:03:43;;;;;;;5.32;2.50;;;;;;;;;;5011602;28;20033;-60
2022/06/30 14:06:09;;;;;;;5.32;2.47;;;;;;;;;;5033085;28;20029;-60
2022/06/30 14:08:34;;;;;;;5.90;2.42;;;;;;;;;;5031107;28;20037;-60
2022/06/30 14:11:00;;;;;;;3.92;2.10;;;;;;;;;;5028285;28;20026;-60
2022/06/30 14:13:26;;;;;;;3.45;2.33;;;;;;;;;;5018310;28;20117;-60
2022/06/30 14:15:52;;;;;;;5.72;2.35;;;;;;;;;;5035281;28;20022;-60
2022/06/30 14:18:18;;;;;;;4.97;2.47;;;;;;;;;;5030826;28;20516;-62
2022/06/30 14:20:44;;;;;;;6.97;2.17;;;;;;;;;;5031338;28;20080;-60
2022/06/30 14:23:10;;;;;;;4.93;2.28;;;;;;;;;;5030501;28;20044;-60
2022/06/30 14:25:36;;;;;;;4.40;2.28;;;;;;;;;;5033866;28;20112;-59
2022/06/30 14:28:02;;;;;;;7.53;2.30;;;;;;;;;;5033355;28;20132;-61
2022/06/30 14:30:28;;;;;;;6.93;2.45;;;;;;;;;;5029605;28;20441;-59
2022/06/30 14:32:53;;;;;;;5.18;2.40;;;;;;;;;;5025539;28;20045;-59
2022/06/30 14:35:19;;;;;;;5.50;2.47;;;;;;;;;;5017588;28;20026;-61
2022/06/30 14:37:44;;;;;;;6.40;2.20;;;;;;;;;;5033000;28;20429;-60
2022/06/30 14:40:11;;;;;;;6.72;2.28;;;;;;;;;;5032762;28;20026;-60
2022/06/30 14:42:43;;;;;;;6.32;2.50;;;;;;;;;;5031468;28;20534;-59